Time;durP1;ratioP1;P1;durP2;ratioP2;P2;SDS_P1;SDS_P2;PMS_P1;PMS_P2;Temp;Humidity;BMP_temperature;BMP_pressure;BME280_temperature;BME280_humidity;BME280_pressure;Samples;Min_cycle;Max_cycle;Signal;HPM_P1;HPM_P2
2022/01/30 00:01:44;;;;;;;8.43;4.23;;;;;;;-2.06;80.01;147163.27;1711937;82;21111;-60
2022/01/30 00:04:10;;;;;;;9.45;4.00;;;;;;;-2.03;79.80;147170.97;1709444;83;21167;-59
2022/01/30 00:06:37;;;;;;;9.40;4.20;;;;;;;-1.98;79.58;147181.23;1710094;83;21020;-59
2022/01/30 00:09:09;;;;;;;7.37;3.50;;;;;;;-1.96;79.20;147186.36;1704778;83;21275;-59
2022/01/30 00:11:37;;;;;;;8.28;3.47;;;;;;;-1.94;78.93;147191.50;1688292;84;21112;-59
2022/01/30 00:14:05;;;;;;;8.20;3.60;;;;;;;-1.93;78.67;147195.38;1694326;84;21485;-59
2022/01/30 00:16:36;;;;;;;9.63;3.55;;;;;;;-1.90;78.41;147201.77;1691721;84;20998;-59
2022/01/30 00:19:23;;;;;;;8.23;3.23;;;;;;;-1.88;78.20;147206.91;1681768;84;21307;-60
2022/01/30 00:21:51;;;;;;;10.82;4.20;;;;;;;-1.86;77.95;147212.09;1707214;83;20998;-59
2022/01/30 00:24:22;;;;;;;9.25;4.03;;;;;;;-1.84;77.71;147217.22;1707247;83;21131;-59
2022/01/30 00:26:43;;;;;;;7.55;3.85;;;;;;;-1.82;77.62;147222.36;1695435;83;21052;-59
2022/01/30 00:29:10;;;;;;;12.78;4.60;;;;;;;-1.82;77.56;147222.36;1695931;83;21934;-59
2022/01/30 00:31:38;;;;;;;8.83;4.10;;;;;;;-1.82;77.51;147222.36;1684763;84;21021;-59
2022/01/30 00:34:05;;;;;;;11.48;4.17;;;;;;;-1.83;77.45;147219.80;1683933;83;21081;-61
2022/01/30 00:36:32;;;;;;;8.43;3.95;;;;;;;-1.83;77.43;147219.80;1678486;84;21009;-62
2022/01/30 00:39:00;;;;;;;11.45;4.55;;;;;;;-1.86;77.46;147212.09;1696034;83;21056;-60
2022/01/30 00:41:28;;;;;;;9.88;3.72;;;;;;;-1.85;77.41;147213.34;1701396;84;21151;-60
2022/01/30 00:43:54;;;;;;;9.65;4.08;;;;;;;-1.85;77.51;147213.34;1701703;83;21387;-61
2022/01/30 00:46:21;;;;;;;9.73;4.55;;;;;;;-1.85;77.61;147213.34;1701083;84;21060;-60
2022/01/30 00:48:49;;;;;;;10.50;4.37;;;;;;;-1.84;77.74;147217.22;1700667;84;21652;-60
2022/01/30 00:51:17;;;;;;;7.10;4.10;;;;;;;-1.84;77.82;147217.22;1699970;84;21089;-60
2022/01/30 00:53:44;;;;;;;13.18;4.80;;;;;;;-1.84;77.89;147215.92;1693728;84;21144;-61
2022/01/30 00:56:11;;;;;;;11.85;5.00;;;;;;;-1.87;78.02;147210.78;1706482;83;21092;-60
2022/01/30 00:58:38;;;;;;;10.95;4.87;;;;;;;-1.88;78.13;147206.91;1696390;83;21346;-60
2022/01/30 01:01:05;;;;;;;13.38;4.75;;;;;;;-1.91;78.26;147199.20;1676660;84;21085;-59
2022/01/30 01:03:31;;;;;;;12.58;5.22;;;;;;;-1.95;78.39;147190.25;1655301;84;21514;-59
2022/01/30 01:05:59;;;;;;;8.93;4.80;;;;;;;-1.99;78.53;147178.66;1646261;86;21136;-59
2022/01/30 01:08:35;;;;;;;13.70;5.35;;;;;;;-2.04;78.81;147167.09;1655235;84;21475;-60
2022/01/30 01:11:26;;;;;;;9.68;4.80;;;;;;;-2.10;79.04;147151.69;1639394;85;21040;-59
2022/01/30 01:24:14;;;;;;;13.05;5.37;;;;;;;-2.25;80.45;147114.44;1643974;86;21125;-60
2022/01/30 01:26:40;;;;;;;11.25;5.40;;;;;;;-2.28;80.63;147106.75;1648301;86;21060;-59
2022/01/30 01:29:08;;;;;;;13.13;5.58;;;;;;;-2.30;80.79;147102.86;1702858;83;21048;-59
2022/01/30 01:31:35;;;;;;;9.88;5.35;;;;;;;-2.34;80.96;147093.86;1695243;83;21143;-59
2022/01/30 01:36:33;;;;;;;10.37;5.10;;;;;;;-2.40;81.25;147078.45;1708181;83;20901;-59
2022/01/30 01:39:00;;;;;;;11.80;5.22;;;;;;;-2.45;81.46;147065.63;1703321;83;21092;-60
2022/01/30 01:41:29;;;;;;;8.35;4.70;;;;;;;-2.50;81.63;147052.80;1647167;85;21064;-61
2022/01/30 01:43:56;;;;;;;11.97;5.43;;;;;;;-2.55;81.76;147039.91;1682931;84;21132;-59
2022/01/30 01:46:27;;;;;;;10.88;5.08;;;;;;;-2.61;81.92;147027.09;1676284;85;21636;-59
2022/01/30 01:48:53;;;;;;;10.70;4.85;;;;;;;-2.66;81.95;147014.25;1688038;84;21046;-59
2022/01/30 01:51:22;;;;;;;8.38;4.28;;;;;;;-2.70;82.04;147003.98;1701441;84;20993;-59
2022/01/30 01:53:52;;;;;;;9.65;4.65;;;;;;;-2.73;82.05;146996.30;1718884;83;21517;-60
2022/01/30 01:56:19;;;;;;;8.78;4.17;;;;;;;-2.76;82.04;146988.59;1679483;84;21767;-59
2022/01/30 01:58:47;;;;;;;10.08;5.00;;;;;;;-2.75;81.99;146991.16;1704209;83;21162;-59
2022/01/30 02:01:26;;;;;;;8.28;4.22;;;;;;;-2.77;81.89;146987.28;1691155;83;21052;-59
2022/01/30 02:03:54;;;;;;;11.40;4.62;;;;;;;-2.78;81.78;146983.41;1714046;83;21108;-59
2022/01/30 02:06:22;;;;;;;9.77;4.80;;;;;;;-2.80;81.76;146979.59;1667441;84;21124;-59
2022/01/30 02:08:58;;;;;;;12.20;4.80;;;;;;;-2.79;81.61;146980.84;1709829;83;21485;-59
2022/01/30 02:11:37;;;;;;;10.20;4.30;;;;;;;-2.80;81.39;146978.28;1675453;84;20992;-59
2022/01/30 02:27:18;;;;;;;8.90;3.92;;;;;;;-2.76;79.33;146988.59;1715021;83;21147;-59
2022/01/30 02:29:44;;;;;;;9.73;3.80;;;;;;;-2.75;78.87;146991.16;1690268;83;21040;-60
2022/01/30 02:32:11;;;;;;;8.13;3.40;;;;;;;-2.72;78.42;146998.86;1691563;83;21044;-59
2022/01/30 02:34:38;;;;;;;10.43;3.47;;;;;;;-2.68;78.00;147007.81;1702287;83;21665;-59
2022/01/30 02:37:05;;;;;;;8.87;4.17;;;;;;;-2.64;77.44;147018.13;1705475;83;21103;-59
2022/01/30 02:39:32;;;;;;;7.17;3.40;;;;;;;-2.59;77.09;147032.22;1693607;83;20993;-59
2022/01/30 02:42:00;;;;;;;7.95;3.58;;;;;;;-2.55;76.62;147041.22;1689697;83;21028;-60
2022/01/30 02:47:10;;;;;;;7.45;3.52;;;;;;;-2.44;75.58;147068.19;1684530;83;21120;-59
2022/01/30 02:49:45;;;;;;;9.65;4.08;;;;;;;-2.39;75.29;147081.03;1689713;84;21096;-61
2022/01/30 02:52:08;;;;;;;8.20;3.70;;;;;;;-2.35;75.11;147090.03;1702683;82;21116;-60
2022/01/30 02:54:36;;;;;;;6.55;3.80;;;;;;;-2.32;74.84;147097.73;1685767;84;21052;-60
2022/01/30 02:57:04;;;;;;;7.00;3.72;;;;;;;-2.31;74.69;147101.59;1701676;84;21108;-60
2022/01/30 02:59:31;;;;;;;10.72;4.15;;;;;;;-2.27;74.49;147109.31;1689417;83;21107;-59
2022/01/30 03:01:57;;;;;;;8.28;4.12;;;;;;;-2.24;74.35;147118.27;1681320;83;21048;-59
2022/01/30 03:04:24;;;;;;;7.62;3.92;;;;;;;-2.20;74.22;147127.28;1698782;83;21474;-60
2022/01/30 03:06:51;;;;;;;8.83;4.70;;;;;;;-2.17;74.19;147134.97;1701091;83;21104;-59
2022/01/30 03:09:29;;;;;;;8.48;4.60;;;;;;;-2.12;74.24;147147.81;1699735;83;21068;-58
2022/01/30 03:11:56;;;;;;;9.50;4.62;;;;;;;-2.08;74.24;147158.12;1701524;83;21937;-59
2022/01/30 03:14:22;;;;;;;10.32;4.70;;;;;;;-2.05;74.29;147164.52;1698402;83;21053;-61
2022/01/30 03:16:49;;;;;;;8.73;4.85;;;;;;;-2.03;74.34;147170.97;1662111;85;21477;-59
2022/01/30 03:19:16;;;;;;;11.57;4.62;;;;;;;-2.00;74.34;147176.09;1627195;87;21565;-58
2022/01/30 03:21:42;;;;;;;9.60;4.60;;;;;;;-2.00;74.32;147176.09;1677074;84;21089;-59
2022/01/30 03:24:09;;;;;;;11.10;5.08;;;;;;;-2.02;74.31;147172.22;1702264;83;21470;-59
2022/01/30 03:26:40;;;;;;;8.80;5.15;;;;;;;-2.05;74.50;147165.83;1700501;83;21053;-60
2022/01/30 03:29:11;;;;;;;10.67;5.27;;;;;;;-2.04;74.76;147168.39;1632443;86;21117;-59
2022/01/30 03:31:44;;;;;;;10.20;4.83;;;;;;;-2.04;75.08;147167.09;1697044;83;21001;-60
2022/01/30 03:34:12;;;;;;;9.90;5.25;;;;;;;-2.04;75.43;147167.09;1692919;83;21523;-60
2022/01/30 03:36:40;;;;;;;10.35;4.95;;;;;;;-2.04;75.64;147168.39;1691508;83;21386;-58
2022/01/30 03:39:07;;;;;;;9.73;4.78;;;;;;;-2.01;75.79;147174.78;1712942;83;21522;-59
2022/01/30 03:41:34;;;;;;;10.72;5.47;;;;;;;-1.99;75.92;147178.66;1715364;83;21084;-59
2022/01/30 03:44:03;;;;;;;10.00;5.37;;;;;;;-1.96;76.02;147186.36;1716617;83;21529;-59
2022/01/30 03:46:31;;;;;;;12.35;5.50;;;;;;;-1.93;76.17;147194.06;1715086;83;21470;-58
2022/01/30 03:48:57;;;;;;;13.15;5.45;;;;;;;-1.91;76.25;147199.20;1682319;83;21141;-59
2022/01/30 03:51:26;;;;;;;11.40;5.70;;;;;;;-1.90;76.37;147203.08;1645694;84;21065;-59
2022/01/30 03:53:57;;;;;;;12.68;6.47;;;;;;;-1.89;76.40;147204.34;1708872;83;21035;-59
2022/01/30 03:56:24;;;;;;;9.75;5.50;;;;;;;-1.91;76.54;147200.52;1716773;83;21015;-61
2022/01/30 03:58:54;;;;;;;11.28;5.28;;;;;;;-1.93;76.68;147195.38;1699259;83;21096;-60
2022/01/30 04:01:21;;;;;;;10.70;5.42;;;;;;;-1.96;76.82;147186.36;1702323;83;21136;-59
2022/01/30 04:03:48;;;;;;;10.85;5.35;;;;;;;-2.00;76.92;147176.09;1705656;83;21075;-59
2022/01/30 04:06:16;;;;;;;12.00;5.80;;;;;;;-2.02;77.04;147173.53;1685129;84;21068;-59
2022/01/30 04:08:44;;;;;;;9.53;5.53;;;;;;;-2.05;77.09;147165.83;1697754;83;20994;-60
2022/01/30 04:11:13;;;;;;;11.35;5.78;;;;;;;-2.07;77.18;147160.69;1711415;83;21056;-60
2022/01/30 04:13:45;;;;;;;12.60;5.50;;;;;;;-2.07;77.25;147160.69;1706996;83;21927;-60
2022/01/30 04:16:26;;;;;;;11.40;5.00;;;;;;;-2.08;77.29;147156.81;1635990;83;21104;-59
2022/01/30 04:18:59;;;;;;;10.32;5.55;;;;;;;-2.11;77.39;147150.37;1686104;84;21138;-59
2022/01/30 04:21:29;;;;;;;13.65;4.80;;;;;;;-2.14;77.51;147142.67;1659572;84;21127;-60
2022/01/30 04:23:58;;;;;;;10.23;5.75;;;;;;;-2.16;77.58;147138.84;1703237;83;21024;-61
2022/01/30 04:26:26;;;;;;;9.83;5.42;;;;;;;-2.17;77.65;147134.97;1698835;83;21079;-60
2022/01/30 04:28:58;;;;;;;9.85;5.70;;;;;;;-2.16;77.70;147137.53;1697192;81;21667;-59
2022/01/30 04:31:43;;;;;;;;;;;;;;;-2.17;77.71;147134.97;1677673;85;21084;-59
2022/01/30 04:34:30;;;;;;;12.68;5.15;;;;;;;-2.19;77.74;147129.84;1716998;83;20180;-59
2022/01/30 04:37:04;;;;;;;11.88;5.00;;;;;;;-2.20;77.83;147127.28;1712268;83;21493;-60
2022/01/30 05:07:50;;;;;;;8.73;4.30;;;;;;;-2.11;77.76;147150.37;1690611;84;21098;-60
2022/01/30 05:10:19;;;;;;;11.00;4.90;;;;;;;-2.08;77.61;147158.12;1680028;84;21565;-61
2022/01/30 05:12:59;;;;;;;8.83;4.37;;;;;;;-2.05;77.50;147165.83;1696705;83;21116;-60
2022/01/30 05:15:30;;;;;;;7.60;4.28;;;;;;;-1.99;77.40;147178.66;1706696;83;21586;-60
2022/01/30 05:18:10;;;;;;;8.43;4.42;;;;;;;-1.93;77.28;147194.06;1696578;83;22231;-60
2022/01/30 05:20:43;;;;;;;9.00;4.33;;;;;;;-1.88;77.11;147206.91;1704435;84;22075;-59
2022/01/30 05:23:29;;;;;;;7.47;4.08;;;;;;;-1.83;76.99;147218.48;1657173;86;21099;-60
2022/01/30 05:25:58;;;;;;;8.90;4.17;;;;;;;-1.79;76.87;147230.06;1685287;83;21060;-60
2022/01/30 05:28:26;;;;;;;10.03;4.40;;;;;;;-1.76;76.63;147237.77;1688828;83;21064;-60
2022/01/30 05:31:05;;;;;;;7.22;3.75;;;;;;;-1.69;76.48;147254.48;1661717;84;21079;-61
2022/01/30 05:33:44;;;;;;;8.60;4.25;;;;;;;-1.59;76.13;147280.16;1642664;86;21412;-60
2022/01/30 05:36:30;;;;;;;8.18;3.77;;;;;;;-1.45;75.77;147314.86;1683974;83;21103;-60
2022/01/30 05:39:00;;;;;;;8.60;4.22;;;;;;;-1.31;75.57;147348.31;1693185;83;21112;-60
2022/01/30 05:41:46;;;;;;;8.73;4.00;;;;;;;-1.21;75.05;147374.05;1696404;83;21066;-59
2022/01/30 05:47:26;;;;;;;7.95;4.35;;;;;;;-0.97;73.98;147433.19;1627532;83;21092;-60
2022/01/30 05:49:52;;;;;;;6.28;3.72;;;;;;;-0.84;73.49;147464.03;1681648;83;21132;-60
2022/01/30 05:52:24;;;;;;;10.90;4.47;;;;;;;-0.74;72.82;147489.77;1648657;84;21053;-64
2022/01/30 05:54:59;;;;;;;7.42;3.87;;;;;;;-0.66;72.43;147509.08;1683711;84;21201;-61
2022/01/30 05:57:27;;;;;;;10.28;4.67;;;;;;;-0.62;72.07;147520.61;1692456;83;21589;-61
2022/01/30 05:59:56;;;;;;;9.15;4.00;;;;;;;-0.59;71.89;147527.06;1629220;85;21153;-62
2022/01/30 06:02:43;;;;;;;9.93;4.25;;;;;;;-0.54;71.84;147539.92;1668218;84;21658;-61
2022/01/30 06:05:10;;;;;;;12.85;4.05;;;;;;;-0.50;71.82;147548.94;1687387;84;22205;-60
2022/01/30 06:07:46;;;;;;;6.72;4.10;;;;;;;-0.48;71.92;147554.08;1677998;84;21090;-59
2022/01/30 06:10:09;;;;;;;11.00;4.55;;;;;;;-0.46;71.98;147559.22;1684147;84;21143;-60
2022/01/30 06:12:36;;;;;;;8.55;4.70;;;;;;;-0.45;72.02;147561.80;1706324;83;21183;-60
2022/01/30 06:15:04;;;;;;;8.45;4.50;;;;;;;-0.43;72.03;147566.94;1673743;83;21554;-60
2022/01/30 06:17:32;;;;;;;8.15;4.40;;;;;;;-0.41;71.94;147572.08;1634854;86;21677;-60
2022/01/30 06:19:59;;;;;;;9.68;4.17;;;;;;;-0.39;71.80;147575.95;1638708;86;21065;-60
2022/01/30 06:22:27;;;;;;;7.67;4.00;;;;;;;-0.38;71.89;147579.78;1620072;85;21069;-59
2022/01/30 06:25:13;;;;;;;5.85;3.87;;;;;;;-0.36;71.96;147584.94;1701199;84;21135;-60
2022/01/30 06:27:58;;;;;;;6.58;3.62;;;;;;;-0.34;71.96;147590.06;1691642;84;22220;-60
2022/01/30 06:30:44;;;;;;;7.50;4.10;;;;;;;-0.32;72.15;147595.27;1704026;83;21010;-60
2022/01/30 06:33:30;;;;;;;;;;;;;;;-0.27;72.32;147605.55;1692491;84;21548;-61
2022/01/30 06:36:15;;;;;;;6.12;3.65;;;;;;;-0.25;72.69;147611.95;1692972;83;20210;-59
2022/01/30 06:38:43;;;;;;;8.88;4.47;;;;;;;-0.23;73.15;147615.83;1703166;83;21151;-60
2022/01/30 06:41:14;;;;;;;11.12;4.55;;;;;;;-0.19;73.57;147627.42;1704925;83;21140;-59
2022/01/30 06:43:54;;;;;;;11.48;4.50;;;;;;;-0.15;73.89;147636.41;1644813;84;21060;-60
2022/01/30 06:46:39;;;;;;;;;;;;;;;-0.11;74.27;147646.73;1687813;83;21053;-61
2022/01/30 06:49:24;;;;;;;10.20;4.67;;;;;;;-0.04;74.74;147664.73;1683370;82;20168;-60
2022/01/30 06:52:11;;;;;;;9.55;4.87;;;;;;;0.02;75.16;147677.59;1630551;85;21154;-59
2022/01/30 06:54:57;;;;;;;11.50;5.30;;;;;;;0.05;75.37;147686.63;1636887;86;21968;-58
2022/01/30 06:57:46;;;;;;;10.53;5.00;;;;;;;0.11;75.66;147700.75;1668873;83;21428;-58
2022/01/30 07:00:27;;;;;;;9.23;5.40;;;;;;;0.15;75.91;147711.08;1666479;84;21048;-59
2022/01/30 07:03:12;;;;;;;10.85;5.62;;;;;;;0.19;76.04;147721.38;1700879;83;21616;-60
2022/01/30 07:05:49;;;;;;;13.43;6.20;;;;;;;0.23;76.00;147731.66;1648648;86;21175;-58
2022/01/30 07:08:24;;;;;;;13.55;5.97;;;;;;;0.22;76.10;147729.08;1690954;83;21578;-59
2022/01/30 07:10:51;;;;;;;13.80;6.28;;;;;;;0.24;76.15;147734.22;1672745;83;21128;-60
2022/01/30 07:13:33;;;;;;;12.05;6.15;;;;;;;0.26;75.65;147739.37;1699893;83;21546;-60
2022/01/30 07:16:00;;;;;;;11.30;6.20;;;;;;;0.29;75.52;147745.83;1694236;83;21061;-59
2022/01/30 07:18:27;;;;;;;11.00;5.90;;;;;;;0.34;75.28;147758.69;1687105;83;21095;-59
2022/01/30 07:20:54;;;;;;;13.20;7.05;;;;;;;0.37;74.87;147765.14;1700303;83;21056;-59
2022/01/30 07:23:21;;;;;;;15.30;6.75;;;;;;;0.37;74.65;147766.41;1678422;83;21073;-60
2022/01/30 07:25:48;;;;;;;12.88;7.05;;;;;;;0.37;74.72;147766.41;1704376;84;21005;-61
2022/01/30 07:28:14;;;;;;;11.83;6.12;;;;;;;0.37;74.78;147765.14;1706982;83;21044;-60
2022/01/30 07:30:41;;;;;;;15.05;6.60;;;;;;;0.36;74.84;147762.56;1675844;84;21082;-59
2022/01/30 07:33:08;;;;;;;11.97;6.75;;;;;;;0.33;74.90;147754.81;1671471;85;21096;-60
2022/01/30 07:35:38;;;;;;;14.23;7.17;;;;;;;0.30;75.09;147747.09;1658334;85;21216;-63
2022/01/30 07:38:04;;;;;;;17.02;7.83;;;;;;;0.27;75.25;147741.94;1650417;85;21084;-59
2022/01/30 07:40:33;;;;;;;14.43;7.70;;;;;;;0.23;75.56;147731.66;1672431;85;21048;-59
2022/01/30 07:42:59;;;;;;;15.43;7.40;;;;;;;0.21;75.79;147726.50;1670341;85;21647;-60
2022/01/30 07:45:26;;;;;;;16.40;8.43;;;;;;;0.19;75.83;147721.38;1661885;84;21065;-59
2022/01/30 07:47:53;;;;;;;18.12;8.00;;;;;;;0.18;76.00;147718.80;1677715;84;21863;-59
2022/01/30 07:50:20;;;;;;;14.95;8.18;;;;;;;0.16;76.27;147712.34;1659343;84;21096;-59
2022/01/30 07:52:47;;;;;;;15.80;7.70;;;;;;;0.13;76.95;147707.19;1667010;85;21435;-59
2022/01/30 07:55:13;;;;;;;14.70;7.67;;;;;;;0.10;77.73;147698.17;1671014;85;21115;-60
2022/01/30 07:57:42;;;;;;;13.98;8.43;;;;;;;0.07;78.70;147690.45;1670490;85;21143;-60
2022/01/30 08:00:10;;;;;;;14.98;7.95;;;;;;;0.01;79.64;147675.02;1650936;86;21104;-60
2022/01/30 08:02:41;;;;;;;14.50;8.25;;;;;;;-0.06;80.36;147659.59;1650768;86;21068;-60
2022/01/30 08:05:09;;;;;;;16.65;8.33;;;;;;;-0.09;81.48;147651.88;1659204;85;21116;-60
2022/01/30 08:07:36;;;;;;;23.87;8.43;;;;;;;-0.15;82.42;147637.72;1653386;85;21732;-60
2022/01/30 08:10:03;;;;;;;17.30;9.13;;;;;;;-0.18;83.46;147628.69;1652303;86;21064;-59
2022/01/30 08:12:30;;;;;;;16.17;8.15;;;;;;;-0.21;84.49;147620.97;1672340;84;21063;-59
2022/01/30 08:14:57;;;;;;;15.50;7.72;;;;;;;-0.24;85.38;147613.27;1672299;84;21148;-60
2022/01/30 08:17:24;;;;;;;16.85;7.65;;;;;;;-0.28;86.22;147602.97;1653797;84;21152;-60
2022/01/30 08:19:51;;;;;;;20.27;8.65;;;;;;;-0.34;86.94;147588.81;1653277;85;21562;-61
2022/01/30 08:22:18;;;;;;;17.87;8.13;;;;;;;-0.44;87.47;147564.36;1653474;84;21061;-60
2022/01/30 08:24:45;;;;;;;17.77;9.83;;;;;;;-0.46;88.24;147560.48;1667108;85;21017;-61
2022/01/30 08:27:12;;;;;;;16.42;9.25;;;;;;;-0.48;88.90;147554.08;1634027;86;21164;-58
2022/01/30 08:29:40;;;;;;;15.68;9.23;;;;;;;-0.47;89.71;147556.66;1635682;86;21110;-59
2022/01/30 08:32:11;;;;;;;18.12;9.08;;;;;;;-0.47;90.21;147556.66;1697141;84;21866;-59
2022/01/30 08:34:41;;;;;;;18.02;9.20;;;;;;;-0.48;90.67;147554.08;1699024;83;21087;-59
2022/01/30 08:37:07;;;;;;;15.20;9.23;;;;;;;-0.47;91.09;147556.66;1668013;84;21059;-61
2022/01/30 08:39:34;;;;;;;15.68;9.10;;;;;;;-0.45;91.47;147561.80;1679992;85;21507;-61
2022/01/30 08:42:05;;;;;;;16.32;9.05;;;;;;;-0.42;91.95;147568.25;1677719;83;21069;-61
2022/01/30 08:44:32;;;;;;;14.00;8.58;;;;;;;-0.40;92.55;147574.64;1697844;83;21101;-61
2022/01/30 08:46:59;;;;;;;16.12;8.95;;;;;;;-0.40;92.84;147574.64;1682576;84;22182;-60
2022/01/30 08:49:26;;;;;;;17.80;8.90;;;;;;;-0.35;93.31;147587.50;1671585;85;21840;-62
2022/01/30 08:51:53;;;;;;;20.17;8.75;;;;;;;-0.35;93.51;147587.50;1699336;83;21433;-61
2022/01/30 08:54:20;;;;;;;16.35;8.78;;;;;;;-0.31;93.90;147597.84;1711889;83;21129;-61
2022/01/30 08:56:46;;;;;;;16.62;8.65;;;;;;;-0.27;94.32;147605.55;1708892;83;21451;-60
2022/01/30 08:59:13;;;;;;;16.32;9.28;;;;;;;-0.24;94.66;147613.27;1683490;83;21636;-60
2022/01/30 09:01:40;;;;;;;18.65;9.10;;;;;;;-0.23;94.86;147615.83;1703272;84;21045;-60
2022/01/30 09:04:07;;;;;;;18.67;9.48;;;;;;;-0.21;95.12;147620.97;1698461;83;21724;-61
2022/01/30 09:06:38;;;;;;;16.87;9.70;;;;;;;-0.18;95.43;147628.69;1679864;84;21502;-60
2022/01/30 09:09:03;;;;;;;14.30;8.35;;;;;;;-0.13;95.76;147640.28;1669870;83;21120;-60
2022/01/30 09:11:32;;;;;;;16.52;9.10;;;;;;;-0.09;95.99;147650.56;1698639;84;21076;-60
2022/01/30 09:13:59;;;;;;;18.62;9.63;;;;;;;-0.08;96.05;147654.45;1696084;84;21049;-61
2022/01/30 09:16:27;;;;;;;16.93;9.60;;;;;;;-0.06;96.20;147659.59;1696839;83;21427;-59
2022/01/30 09:18:56;;;;;;;18.73;10.08;;;;;;;-0.05;96.37;147660.86;1688749;83;21569;-60
2022/01/30 09:21:22;;;;;;;18.73;9.45;;;;;;;-0.05;96.45;147662.16;1676611;83;21800;-61
2022/01/30 09:23:49;;;;;;;20.88;10.13;;;;;;;-0.01;96.60;147671.14;1691773;83;21017;-60
2022/01/30 09:26:15;;;;;;;18.67;9.38;;;;;;;-0.01;96.64;147672.45;1708964;83;21746;-60
2022/01/30 09:28:42;;;;;;;20.30;9.73;;;;;;;0.01;96.66;147675.02;1695758;83;21081;-59
2022/01/30 09:31:09;;;;;;;18.05;10.18;;;;;;;0.04;96.92;147682.73;1701559;83;21136;-60
2022/01/30 09:33:36;;;;;;;17.35;9.90;;;;;;;0.04;96.98;147682.73;1698051;83;21986;-60
2022/01/30 09:36:04;;;;;;;16.85;9.70;;;;;;;0.06;97.20;147689.19;1710045;83;22115;-59
2022/01/30 09:38:31;;;;;;;19.35;10.20;;;;;;;0.09;97.27;147695.59;1695979;83;21668;-60
2022/01/30 09:40:58;;;;;;;17.80;9.40;;;;;;;0.10;97.44;147698.17;1695841;83;21065;-59
2022/01/30 09:43:28;;;;;;;17.55;9.63;;;;;;;0.15;97.66;147711.08;1695403;83;21061;-61
2022/01/30 09:45:55;;;;;;;16.75;8.90;;;;;;;0.16;97.64;147713.66;1707936;83;21147;-59
2022/01/30 09:48:23;;;;;;;17.67;9.28;;;;;;;0.16;97.61;147713.66;1692729;83;21178;-59
2022/01/30 09:50:50;;;;;;;17.80;9.23;;;;;;;0.15;97.67;147711.08;1677987;85;21098;-60
2022/01/30 09:53:17;;;;;;;19.15;9.43;;;;;;;0.17;97.79;147716.22;1692953;84;21454;-62
2022/01/30 09:55:43;;;;;;;15.85;9.05;;;;;;;0.19;97.70;147721.38;1704984;84;21450;-60
2022/01/30 09:58:10;;;;;;;16.82;9.58;;;;;;;0.18;97.63;147718.80;1712581;83;21124;-60
2022/01/30 10:00:37;;;;;;;16.12;9.98;;;;;;;0.17;97.70;147714.91;1706497;83;21009;-61
2022/01/30 10:03:03;;;;;;;18.42;9.98;;;;;;;0.13;97.70;147707.19;1706640;83;22182;-61
2022/01/30 10:05:34;;;;;;;17.75;9.20;;;;;;;0.09;97.67;147695.59;1702197;83;21100;-60
2022/01/30 10:07:59;;;;;;;18.75;9.60;;;;;;;0.05;97.70;147685.31;1689114;83;22282;-59
2022/01/30 10:10:29;;;;;;;17.57;9.88;;;;;;;0.01;97.86;147676.34;1703457;83;21140;-60
2022/01/30 10:13:05;;;;;;;17.00;9.48;;;;;;;0.01;98.05;147675.02;1701969;83;21123;-59
2022/01/30 10:15:56;;;;;;;19.45;9.90;;;;;;;-0.02;98.12;147668.56;1697668;84;21467;-58
2022/01/30 10:18:25;;;;;;;15.78;9.25;;;;;;;-0.03;98.34;147666.00;1680881;83;21071;-58
2022/01/30 10:20:52;;;;;;;20.45;9.40;;;;;;;-0.01;98.71;147672.45;1689087;84;21052;-61
2022/01/30 10:23:19;;;;;;;13.62;8.18;;;;;;;0.02;98.95;147678.91;1690185;83;21097;-61
2022/01/30 10:25:52;;;;;;;16.02;8.48;;;;;;;-0.01;98.90;147672.45;1705657;84;21524;-60
2022/01/30 10:28:27;;;;;;;12.68;7.85;;;;;;;-0.03;99.15;147667.31;1701210;83;21121;-60
2022/01/30 10:31:02;;;;;;;;;;;;;;;-0.02;99.29;147669.88;1706826;84;21092;-61
2022/01/30 10:33:42;;;;;;;15.32;8.60;;;;;;;0.00;99.60;147673.75;1672164;83;20208;-60
2022/01/30 10:36:10;;;;;;;15.48;8.40;;;;;;;0.06;99.93;147687.87;1679815;83;21100;-61
2022/01/30 10:38:41;;;;;;;12.88;7.67;;;;;;;0.09;100.00;147695.59;1696872;83;20949;-61
2022/01/30 10:41:12;;;;;;;13.03;7.78;;;;;;;0.11;100.00;147700.75;1714994;83;21601;-60
2022/01/30 10:43:56;;;;;;;14.75;8.23;;;;;;;0.15;100.00;147711.08;1711292;83;21064;-60
2022/01/30 10:46:29;;;;;;;12.43;7.47;;;;;;;0.18;100.00;147718.80;1701251;83;21517;-60
2022/01/30 10:49:09;;;;;;;13.50;7.50;;;;;;;0.22;100.00;147729.08;1698942;83;21136;-60
2022/01/30 10:51:35;;;;;;;13.13;7.65;;;;;;;0.24;100.00;147734.22;1704427;83;21319;-62
2022/01/30 10:54:12;;;;;;;12.73;7.40;;;;;;;0.26;100.00;147739.37;1715299;83;21052;-64
2022/01/30 10:56:40;;;;;;;13.88;8.10;;;;;;;0.33;100.00;147754.81;1710883;82;21443;-61
2022/01/30 10:59:13;;;;;;;19.12;7.25;;;;;;;0.38;100.00;147767.72;1702133;83;21103;-61
2022/01/30 11:01:45;;;;;;;12.93;7.85;;;;;;;0.40;100.00;147772.86;1714570;83;21544;-61
2022/01/30 11:04:31;;;;;;;13.65;7.97;;;;;;;0.43;100.00;147781.84;1689207;83;21103;-59
2022/01/30 11:07:01;;;;;;;12.93;7.30;;;;;;;0.45;100.00;147785.72;1682162;84;21524;-59
2022/01/30 11:09:34;;;;;;;13.50;7.95;;;;;;;0.43;100.00;147780.58;1690337;83;21085;-60
2022/01/30 11:12:04;;;;;;;13.38;8.00;;;;;;;0.44;100.00;147783.16;1674519;84;21474;-60
2022/01/30 11:17:15;;;;;;;13.75;8.18;;;;;;;0.50;100.00;147798.59;1654457;83;21493;-60
2022/01/30 11:19:42;;;;;;;12.55;7.70;;;;;;;0.51;100.00;147801.16;1682774;83;21513;-60
2022/01/30 11:22:14;;;;;;;11.35;7.37;;;;;;;0.49;100.00;147796.02;1716484;83;21604;-60
2022/01/30 11:25:01;;;;;;;14.53;8.20;;;;;;;0.48;100.00;147793.44;1696824;84;21045;-60
2022/01/30 11:27:28;;;;;;;15.53;8.13;;;;;;;0.47;100.00;147790.87;1702097;83;21229;-61
2022/01/30 11:29:55;;;;;;;14.05;8.33;;;;;;;0.49;100.00;147794.75;1702659;83;21525;-61
2022/01/30 11:32:23;;;;;;;13.28;7.40;;;;;;;0.50;100.00;147798.59;1707863;82;21060;-60
2022/01/30 11:34:50;;;;;;;13.75;8.15;;;;;;;0.54;100.00;147808.88;1704056;83;21036;-61
2022/01/30 11:37:17;;;;;;;14.03;8.13;;;;;;;0.55;100.00;147811.50;1693626;84;21679;-61
2022/01/30 11:39:49;;;;;;;13.48;7.97;;;;;;;0.60;100.00;147821.78;1707580;83;21550;-59
2022/01/30 11:42:19;;;;;;;11.83;7.62;;;;;;;0.63;100.00;147830.78;1708273;83;21574;-59
2022/01/30 11:44:52;;;;;;;16.20;7.60;;;;;;;0.66;100.00;147838.55;1707595;83;21014;-60
2022/01/30 11:47:19;;;;;;;13.60;7.62;;;;;;;0.72;100.00;147852.67;1694444;83;21150;-60
2022/01/30 11:49:57;;;;;;;12.68;7.87;;;;;;;0.72;100.00;147852.67;1681404;84;21081;-60
2022/01/30 11:52:51;;;;;;;13.28;8.03;;;;;;;0.74;100.00;147857.81;1676023;84;21534;-60
2022/01/30 11:55:39;;;;;;;15.20;8.20;;;;;;;0.76;100.00;147861.70;1620589;87;21072;-59
2022/01/30 11:58:06;;;;;;;13.28;8.35;;;;;;;0.76;100.00;147862.97;1615371;87;21113;-59
2022/01/30 12:00:36;;;;;;;16.45;9.18;;;;;;;0.76;100.00;147862.97;1607786;87;21353;-59
2022/01/30 12:03:31;;;;;;;13.48;8.45;;;;;;;0.82;100.00;147877.14;1642744;83;21237;-59
2022/01/30 12:06:21;;;;;;;15.50;6.92;;;;;;;0.87;100.00;147888.75;1678796;83;21152;-59
2022/01/30 12:08:50;;;;;;;12.95;8.18;;;;;;;0.90;100.00;147896.47;1699852;83;21454;-59
2022/01/30 12:11:43;;;;;;;16.00;8.80;;;;;;;0.89;100.00;147893.89;1709663;83;21562;-59
2022/01/30 12:14:13;;;;;;;16.82;9.48;;;;;;;0.89;100.00;147895.20;1708524;83;21068;-60
2022/01/30 12:16:57;;;;;;;13.78;8.30;;;;;;;0.90;100.00;147896.47;1704099;83;21418;-59
2022/01/30 12:19:45;;;;;;;16.15;9.25;;;;;;;0.92;100.00;147901.63;1701215;83;21093;-61
2022/01/30 12:22:29;;;;;;;14.68;9.33;;;;;;;0.92;100.00;147901.63;1684335;83;21626;-61
2022/01/30 12:25:30;;;;;;;19.05;8.88;;;;;;;0.91;100.00;147899.03;1703512;83;21070;-62
2022/01/30 12:28:00;;;;;;;13.88;8.95;;;;;;;0.92;100.00;147901.63;1707677;83;21084;-60
2022/01/30 12:30:42;;;;;;;15.00;9.10;;;;;;;0.94;100.00;147906.77;1708862;83;21339;-60
2022/01/30 12:33:36;;;;;;;12.23;8.18;;;;;;;0.95;100.00;147909.33;1709147;82;21078;-60
2022/01/30 12:36:12;;;;;;;14.45;8.48;;;;;;;0.97;100.00;147915.80;1708217;82;21477;-60
2022/01/30 12:39:08;;;;;;;12.70;7.90;;;;;;;1.00;100.00;147922.25;1709294;82;21137;-60
2022/01/30 12:41:40;;;;;;;12.85;7.80;;;;;;;1.02;100.00;147927.41;1709694;83;20953;-59
2022/01/30 12:44:13;;;;;;;11.30;7.47;;;;;;;1.05;100.00;147935.13;1707592;83;21084;-59